sensor_id;sensor_type;location;lat;lon;timestamp;P1;durP1;ratioP1;P2;durP2;ratioP2
42084;SDS011;27746;52.228;20.890;2022-12-24T00:01:02;58.22;;;28.77;;
42084;SDS011;27746;52.228;20.890;2022-12-24T00:03:30;54.38;;;27.42;;
42084;SDS011;27746;52.228;20.890;2022-12-24T00:05:57;59.20;;;27.88;;
42084;SDS011;27746;52.228;20.890;2022-12-24T00:08:24;59.65;;;29.08;;
42084;SDS011;27746;52.228;20.890;2022-12-24T00:10:51;61.03;;;28.60;;
42084;SDS011;27746;52.228;20.890;2022-12-24T00:13:19;59.55;;;28.23;;
42084;SDS011;27746;52.228;20.890;2022-12-24T00:15:47;65.40;;;32.13;;
42084;SDS011;27746;52.228;20.890;2022-12-24T00:18:15;60.92;;;29.02;;
42084;SDS011;27746;52.228;20.890;2022-12-24T00:20:44;72.82;;;33.03;;
42084;SDS011;27746;52.228;20.890;2022-12-24T00:23:11;59.88;;;29.48;;
42084;SDS011;27746;52.228;20.890;2022-12-24T00:25:39;64.45;;;29.52;;
42084;SDS011;27746;52.228;20.890;2022-12-24T00:28:06;65.60;;;29.75;;
42084;SDS011;27746;52.228;20.890;2022-12-24T00:30:32;74.13;;;31.73;;
42084;SDS011;27746;52.228;20.890;2022-12-24T00:33:01;74.35;;;29.75;;
42084;SDS011;27746;52.228;20.890;2022-12-24T00:35:28;67.43;;;30.33;;
42084;SDS011;27746;52.228;20.890;2022-12-24T00:37:55;70.50;;;30.42;;
42084;SDS011;27746;52.228;20.890;2022-12-24T00:40:21;70.13;;;29.77;;
42084;SDS011;27746;52.228;20.890;2022-12-24T00:42:48;71.50;;;30.38;;
42084;SDS011;27746;52.228;20.890;2022-12-24T00:45:15;72.13;;;32.63;;
42084;SDS011;27746;52.228;20.890;2022-12-24T00:47:42;73.32;;;33.10;;
42084;SDS011;27746;52.228;20.890;2022-12-24T00:50:10;68.55;;;31.73;;
42084;SDS011;27746;52.228;20.890;2022-12-24T00:52:37;65.35;;;28.48;;
42084;SDS011;27746;52.228;20.890;2022-12-24T00:55:05;77.05;;;32.22;;
42084;SDS011;27746;52.228;20.890;2022-12-24T00:57:32;67.75;;;30.35;;
42084;SDS011;27746;52.228;20.890;2022-12-24T00:59:59;72.05;;;30.45;;
42084;SDS011;27746;52.228;20.890;2022-12-24T01:02:25;65.65;;;32.45;;
42084;SDS011;27746;52.228;20.890;2022-12-24T01:04:52;77.57;;;32.85;;
42084;SDS011;27746;52.228;20.890;2022-12-24T01:07:38;71.85;;;31.73;;
42084;SDS011;27746;52.228;20.890;2022-12-24T01:10:08;74.57;;;32.33;;
42084;SDS011;27746;52.228;20.890;2022-12-24T01:12:36;77.10;;;33.72;;
42084;SDS011;27746;52.228;20.890;2022-12-24T01:15:04;68.53;;;31.80;;
42084;SDS011;27746;52.228;20.890;2022-12-24T01:17:31;73.95;;;30.20;;
42084;SDS011;27746;52.228;20.890;2022-12-24T01:19:59;72.97;;;31.80;;
42084;SDS011;27746;52.228;20.890;2022-12-24T01:22:26;63.03;;;31.75;;
42084;SDS011;27746;52.228;20.890;2022-12-24T01:24:54;68.90;;;30.15;;
42084;SDS011;27746;52.228;20.890;2022-12-24T01:27:21;74.00;;;32.17;;
42084;SDS011;27746;52.228;20.890;2022-12-24T01:29:48;67.50;;;28.98;;
42084;SDS011;27746;52.228;20.890;2022-12-24T01:32:15;72.25;;;30.70;;
42084;SDS011;27746;52.228;20.890;2022-12-24T01:34:42;62.33;;;29.25;;
42084;SDS011;27746;52.228;20.890;2022-12-24T01:37:21;64.60;;;29.48;;
42084;SDS011;27746;52.228;20.890;2022-12-24T01:39:48;62.38;;;29.00;;
42084;SDS011;27746;52.228;20.890;2022-12-24T01:42:17;64.88;;;30.35;;
42084;SDS011;27746;52.228;20.890;2022-12-24T01:45:40;65.78;;;28.17;;
42084;SDS011;27746;52.228;20.890;2022-12-24T01:48:30;61.60;;;28.33;;
42084;SDS011;27746;52.228;20.890;2022-12-24T01:53:32;69.90;;;28.40;;
42084;SDS011;27746;52.228;20.890;2022-12-24T01:56:02;57.85;;;26.98;;
42084;SDS011;27746;52.228;20.890;2022-12-24T01:58:30;65.32;;;29.23;;
42084;SDS011;27746;52.228;20.890;2022-12-24T02:00:59;68.47;;;29.35;;
42084;SDS011;27746;52.228;20.890;2022-12-24T02:03:27;61.45;;;28.83;;
42084;SDS011;27746;52.228;20.890;2022-12-24T02:05:54;65.22;;;28.48;;
42084;SDS011;27746;52.228;20.890;2022-12-24T02:08:23;58.63;;;27.95;;
42084;SDS011;27746;52.228;20.890;2022-12-24T02:11:09;61.00;;;27.60;;
42084;SDS011;27746;52.228;20.890;2022-12-24T02:13:36;60.25;;;28.33;;
42084;SDS011;27746;52.228;20.890;2022-12-24T02:16:05;60.33;;;28.05;;
42084;SDS011;27746;52.228;20.890;2022-12-24T02:18:43;69.40;;;31.08;;
42084;SDS011;27746;52.228;20.890;2022-12-24T02:24:20;65.68;;;29.60;;
42084;SDS011;27746;52.228;20.890;2022-12-24T02:27:11;62.17;;;29.65;;
42084;SDS011;27746;52.228;20.890;2022-12-24T02:29:50;72.47;;;30.38;;
42084;SDS011;27746;52.228;20.890;2022-12-24T02:32:39;69.95;;;30.98;;
42084;SDS011;27746;52.228;20.890;2022-12-24T02:35:26;62.95;;;29.33;;
42084;SDS011;27746;52.228;20.890;2022-12-24T02:38:02;63.35;;;30.05;;
42084;SDS011;27746;52.228;20.890;2022-12-24T02:40:35;65.82;;;29.73;;
42084;SDS011;27746;52.228;20.890;2022-12-24T02:43:08;67.72;;;30.80;;
42084;SDS011;27746;52.228;20.890;2022-12-24T02:45:39;64.03;;;29.67;;
42084;SDS011;27746;52.228;20.890;2022-12-24T02:48:11;64.45;;;30.17;;
42084;SDS011;27746;52.228;20.890;2022-12-24T02:50:52;62.83;;;31.60;;
42084;SDS011;27746;52.228;20.890;2022-12-24T02:53:24;57.50;;;27.17;;
42084;SDS011;27746;52.228;20.890;2022-12-24T02:55:55;70.53;;;29.60;;
42084;SDS011;27746;52.228;20.890;2022-12-24T02:58:43;66.55;;;29.27;;
42084;SDS011;27746;52.228;20.890;2022-12-24T03:01:22;63.63;;;30.10;;
42084;SDS011;27746;52.228;20.890;2022-12-24T03:04:03;74.03;;;29.70;;
42084;SDS011;27746;52.228;20.890;2022-12-24T03:06:38;57.85;;;28.95;;
42084;SDS011;27746;52.228;20.890;2022-12-24T03:09:12;64.50;;;27.80;;
42084;SDS011;27746;52.228;20.890;2022-12-24T03:11:45;72.95;;;30.90;;
42084;SDS011;27746;52.228;20.890;2022-12-24T03:14:18;64.20;;;31.42;;
42084;SDS011;27746;52.228;20.890;2022-12-24T03:16:49;64.53;;;29.73;;
42084;SDS011;27746;52.228;20.890;2022-12-24T03:19:16;75.85;;;30.92;;
42084;SDS011;27746;52.228;20.890;2022-12-24T03:21:44;71.95;;;30.95;;
42084;SDS011;27746;52.228;20.890;2022-12-24T03:24:13;68.75;;;29.48;;
42084;SDS011;27746;52.228;20.890;2022-12-24T03:26:40;78.95;;;30.85;;
42084;SDS011;27746;52.228;20.890;2022-12-24T03:29:10;72.90;;;30.58;;
42084;SDS011;27746;52.228;20.890;2022-12-24T03:31:40;68.88;;;32.25;;
42084;SDS011;27746;52.228;20.890;2022-12-24T03:34:10;66.70;;;31.77;;
42084;SDS011;27746;52.228;20.890;2022-12-24T03:36:38;71.93;;;28.42;;
42084;SDS011;27746;52.228;20.890;2022-12-24T03:39:05;73.47;;;27.75;;
42084;SDS011;27746;52.228;20.890;2022-12-24T03:41:33;74.22;;;29.50;;
42084;SDS011;27746;52.228;20.890;2022-12-24T03:44:00;64.60;;;28.42;;
42084;SDS011;27746;52.228;20.890;2022-12-24T03:46:28;65.18;;;26.90;;
42084;SDS011;27746;52.228;20.890;2022-12-24T03:48:56;68.72;;;28.55;;
42084;SDS011;27746;52.228;20.890;2022-12-24T03:51:24;69.18;;;31.38;;
42084;SDS011;27746;52.228;20.890;2022-12-24T03:53:53;55.13;;;27.48;;
42084;SDS011;27746;52.228;20.890;2022-12-24T03:56:21;59.17;;;29.13;;
42084;SDS011;27746;52.228;20.890;2022-12-24T03:58:49;56.42;;;28.50;;
42084;SDS011;27746;52.228;20.890;2022-12-24T04:01:16;58.22;;;28.17;;
42084;SDS011;27746;52.228;20.890;2022-12-24T04:03:43;52.17;;;25.33;;
42084;SDS011;27746;52.228;20.890;2022-12-24T04:06:11;52.30;;;28.13;;
42084;SDS011;27746;52.228;20.890;2022-12-24T04:08:40;51.03;;;25.70;;
42084;SDS011;27746;52.228;20.890;2022-12-24T04:11:08;47.30;;;26.58;;
42084;SDS011;27746;52.228;20.890;2022-12-24T04:13:36;46.83;;;24.80;;
42084;SDS011;27746;52.228;20.890;2022-12-24T04:16:04;51.75;;;26.83;;
42084;SDS011;27746;52.228;20.890;2022-12-24T04:18:32;54.05;;;27.83;;
42084;SDS011;27746;52.228;20.890;2022-12-24T04:20:59;53.42;;;26.08;;
42084;SDS011;27746;52.228;20.890;2022-12-24T04:23:28;54.67;;;26.13;;
42084;SDS011;27746;52.228;20.890;2022-12-24T04:25:58;57.55;;;27.42;;
42084;SDS011;27746;52.228;20.890;2022-12-24T04:28:25;56.90;;;28.52;;
42084;SDS011;27746;52.228;20.890;2022-12-24T04:30:56;60.95;;;26.73;;
42084;SDS011;27746;52.228;20.890;2022-12-24T04:33:24;54.85;;;26.90;;
42084;SDS011;27746;52.228;20.890;2022-12-24T04:35:50;60.90;;;30.35;;
42084;SDS011;27746;52.228;20.890;2022-12-24T04:38:17;51.08;;;25.20;;
42084;SDS011;27746;52.228;20.890;2022-12-24T04:40:44;59.65;;;28.50;;
42084;SDS011;27746;52.228;20.890;2022-12-24T04:43:13;49.75;;;24.23;;
42084;SDS011;27746;52.228;20.890;2022-12-24T04:45:40;52.10;;;25.88;;
42084;SDS011;27746;52.228;20.890;2022-12-24T04:48:07;49.63;;;24.40;;
42084;SDS011;27746;52.228;20.890;2022-12-24T04:50:34;45.70;;;22.92;;
42084;SDS011;27746;52.228;20.890;2022-12-24T04:53:01;49.20;;;24.25;;
42084;SDS011;27746;52.228;20.890;2022-12-24T04:55:28;48.70;;;23.70;;
42084;SDS011;27746;52.228;20.890;2022-12-24T04:57:54;45.53;;;23.20;;
42084;SDS011;27746;52.228;20.890;2022-12-24T05:00:23;51.80;;;25.25;;
42084;SDS011;27746;52.228;20.890;2022-12-24T05:02:49;50.25;;;23.60;;
42084;SDS011;27746;52.228;20.890;2022-12-24T05:05:16;57.20;;;25.52;;
42084;SDS011;27746;52.228;20.890;2022-12-24T05:07:43;52.78;;;24.83;;
42084;SDS011;27746;52.228;20.890;2022-12-24T05:10:10;51.78;;;25.73;;
42084;SDS011;27746;52.228;20.890;2022-12-24T05:12:37;55.33;;;24.13;;
42084;SDS011;27746;52.228;20.890;2022-12-24T05:15:04;52.72;;;26.00;;
42084;SDS011;27746;52.228;20.890;2022-12-24T05:17:33;58.30;;;25.55;;
42084;SDS011;27746;52.228;20.890;2022-12-24T05:20:00;42.92;;;22.63;;
42084;SDS011;27746;52.228;20.890;2022-12-24T05:22:27;35.55;;;19.70;;
42084;SDS011;27746;52.228;20.890;2022-12-24T05:25:11;38.15;;;18.95;;
42084;SDS011;27746;52.228;20.890;2022-12-24T05:27:56;35.17;;;19.00;;
42084;SDS011;27746;52.228;20.890;2022-12-24T05:30:23;33.10;;;18.98;;
42084;SDS011;27746;52.228;20.890;2022-12-24T05:32:51;40.38;;;20.50;;
42084;SDS011;27746;52.228;20.890;2022-12-24T05:35:18;35.15;;;17.77;;
42084;SDS011;27746;52.228;20.890;2022-12-24T05:37:45;31.60;;;17.60;;
42084;SDS011;27746;52.228;20.890;2022-12-24T05:40:12;33.90;;;17.30;;
42084;SDS011;27746;52.228;20.890;2022-12-24T05:42:38;27.08;;;15.90;;
42084;SDS011;27746;52.228;20.890;2022-12-24T05:45:06;28.33;;;17.92;;
42084;SDS011;27746;52.228;20.890;2022-12-24T05:47:34;30.83;;;16.70;;
42084;SDS011;27746;52.228;20.890;2022-12-24T05:50:02;30.25;;;17.23;;
42084;SDS011;27746;52.228;20.890;2022-12-24T05:52:29;29.25;;;14.82;;
42084;SDS011;27746;52.228;20.890;2022-12-24T05:54:56;29.08;;;16.58;;
42084;SDS011;27746;52.228;20.890;2022-12-24T05:57:23;32.50;;;16.33;;
42084;SDS011;27746;52.228;20.890;2022-12-24T05:59:50;32.78;;;16.92;;
42084;SDS011;27746;52.228;20.890;2022-12-24T06:02:17;32.38;;;18.15;;
42084;SDS011;27746;52.228;20.890;2022-12-24T06:04:44;30.20;;;16.27;;
42084;SDS011;27746;52.228;20.890;2022-12-24T06:07:12;32.72;;;17.17;;
42084;SDS011;27746;52.228;20.890;2022-12-24T06:09:39;30.40;;;16.17;;
42084;SDS011;27746;52.228;20.890;2022-12-24T06:12:06;34.13;;;16.48;;
42084;SDS011;27746;52.228;20.890;2022-12-24T06:14:33;28.25;;;14.63;;
42084;SDS011;27746;52.228;20.890;2022-12-24T06:17:00;31.67;;;17.52;;
42084;SDS011;27746;52.228;20.890;2022-12-24T06:19:29;28.52;;;15.68;;
42084;SDS011;27746;52.228;20.890;2022-12-24T06:21:56;31.98;;;15.60;;
42084;SDS011;27746;52.228;20.890;2022-12-24T06:24:24;30.33;;;14.65;;
42084;SDS011;27746;52.228;20.890;2022-12-24T06:26:51;30.15;;;16.23;;
42084;SDS011;27746;52.228;20.890;2022-12-24T06:29:18;30.08;;;16.23;;
42084;SDS011;27746;52.228;20.890;2022-12-24T06:31:45;29.63;;;15.73;;
42084;SDS011;27746;52.228;20.890;2022-12-24T06:34:12;31.10;;;15.43;;
42084;SDS011;27746;52.228;20.890;2022-12-24T06:36:38;26.20;;;15.63;;
42084;SDS011;27746;52.228;20.890;2022-12-24T06:39:05;28.83;;;15.27;;
42084;SDS011;27746;52.228;20.890;2022-12-24T06:41:34;32.33;;;16.52;;
42084;SDS011;27746;52.228;20.890;2022-12-24T06:44:00;28.85;;;14.48;;
42084;SDS011;27746;52.228;20.890;2022-12-24T06:46:27;29.05;;;15.73;;
42084;SDS011;27746;52.228;20.890;2022-12-24T06:48:54;35.10;;;16.38;;
42084;SDS011;27746;52.228;20.890;2022-12-24T06:51:21;31.45;;;14.40;;
42084;SDS011;27746;52.228;20.890;2022-12-24T06:53:48;33.30;;;15.95;;
42084;SDS011;27746;52.228;20.890;2022-12-24T06:56:15;30.05;;;15.75;;
42084;SDS011;27746;52.228;20.890;2022-12-24T06:58:45;31.30;;;15.75;;
42084;SDS011;27746;52.228;20.890;2022-12-24T07:01:12;29.85;;;15.98;;
42084;SDS011;27746;52.228;20.890;2022-12-24T07:03:43;28.42;;;14.65;;
42084;SDS011;27746;52.228;20.890;2022-12-24T07:06:10;35.83;;;15.00;;
42084;SDS011;27746;52.228;20.890;2022-12-24T07:08:42;32.53;;;14.25;;
42084;SDS011;27746;52.228;20.890;2022-12-24T07:11:09;34.40;;;16.65;;
42084;SDS011;27746;52.228;20.890;2022-12-24T07:13:36;32.08;;;15.50;;
42084;SDS011;27746;52.228;20.890;2022-12-24T07:16:06;31.88;;;14.88;;
42084;SDS011;27746;52.228;20.890;2022-12-24T07:18:33;30.20;;;15.65;;
42084;SDS011;27746;52.228;20.890;2022-12-24T07:21:01;31.25;;;15.38;;
42084;SDS011;27746;52.228;20.890;2022-12-24T07:23:28;34.80;;;16.42;;
42084;SDS011;27746;52.228;20.890;2022-12-24T07:25:58;33.95;;;16.23;;
42084;SDS011;27746;52.228;20.890;2022-12-24T07:28:26;32.83;;;15.00;;
42084;SDS011;27746;52.228;20.890;2022-12-24T07:30:53;32.97;;;16.13;;
42084;SDS011;27746;52.228;20.890;2022-12-24T07:33:22;30.17;;;16.00;;
42084;SDS011;27746;52.228;20.890;2022-12-24T07:35:48;33.40;;;15.43;;
42084;SDS011;27746;52.228;20.890;2022-12-24T07:38:23;33.35;;;15.32;;
42084;SDS011;27746;52.228;20.890;2022-12-24T07:40:50;35.22;;;17.63;;
42084;SDS011;27746;52.228;20.890;2022-12-24T07:43:17;31.40;;;15.43;;
42084;SDS011;27746;52.228;20.890;2022-12-24T07:45:44;31.90;;;15.02;;
42084;SDS011;27746;52.228;20.890;2022-12-24T07:48:10;33.95;;;14.35;;
42084;SDS011;27746;52.228;20.890;2022-12-24T07:50:39;31.13;;;14.70;;
42084;SDS011;27746;52.228;20.890;2022-12-24T07:53:06;31.25;;;14.40;;
42084;SDS011;27746;52.228;20.890;2022-12-24T07:55:32;28.50;;;13.55;;
42084;SDS011;27746;52.228;20.890;2022-12-24T07:58:00;29.83;;;14.40;;
42084;SDS011;27746;52.228;20.890;2022-12-24T08:00:27;31.10;;;14.98;;
42084;SDS011;27746;52.228;20.890;2022-12-24T08:02:54;33.58;;;15.40;;
42084;SDS011;27746;52.228;20.890;2022-12-24T08:05:22;33.35;;;15.45;;
42084;SDS011;27746;52.228;20.890;2022-12-24T08:07:50;32.65;;;15.13;;
42084;SDS011;27746;52.228;20.890;2022-12-24T08:10:17;34.03;;;14.73;;
42084;SDS011;27746;52.228;20.890;2022-12-24T08:12:44;37.97;;;16.20;;
42084;SDS011;27746;52.228;20.890;2022-12-24T08:15:12;35.75;;;16.73;;
42084;SDS011;27746;52.228;20.890;2022-12-24T08:17:39;35.45;;;15.63;;
42084;SDS011;27746;52.228;20.890;2022-12-24T08:20:07;35.22;;;16.00;;
42084;SDS011;27746;52.228;20.890;2022-12-24T08:22:34;31.65;;;15.10;;
42084;SDS011;27746;52.228;20.890;2022-12-24T08:25:04;32.40;;;15.82;;
42084;SDS011;27746;52.228;20.890;2022-12-24T08:27:31;30.58;;;14.52;;
42084;SDS011;27746;52.228;20.890;2022-12-24T08:29:58;29.27;;;14.32;;
42084;SDS011;27746;52.228;20.890;2022-12-24T08:32:25;33.70;;;14.68;;
42084;SDS011;27746;52.228;20.890;2022-12-24T08:34:52;30.48;;;14.43;;
42084;SDS011;27746;52.228;20.890;2022-12-24T08:37:19;26.55;;;14.02;;
42084;SDS011;27746;52.228;20.890;2022-12-24T08:39:46;28.92;;;14.77;;
42084;SDS011;27746;52.228;20.890;2022-12-24T08:42:15;29.52;;;13.68;;
42084;SDS011;27746;52.228;20.890;2022-12-24T08:44:41;28.55;;;13.88;;
42084;SDS011;27746;52.228;20.890;2022-12-24T08:47:08;28.17;;;14.65;;
42084;SDS011;27746;52.228;20.890;2022-12-24T08:49:35;28.10;;;13.68;;
42084;SDS011;27746;52.228;20.890;2022-12-24T08:52:03;32.58;;;14.13;;
42084;SDS011;27746;52.228;20.890;2022-12-24T08:54:30;29.48;;;13.73;;
42084;SDS011;27746;52.228;20.890;2022-12-24T08:56:59;29.80;;;13.68;;
42084;SDS011;27746;52.228;20.890;2022-12-24T08:59:27;26.75;;;13.85;;
42084;SDS011;27746;52.228;20.890;2022-12-24T09:01:54;30.40;;;13.85;;
42084;SDS011;27746;52.228;20.890;2022-12-24T09:04:21;30.23;;;13.60;;
42084;SDS011;27746;52.228;20.890;2022-12-24T09:06:48;28.90;;;13.63;;
42084;SDS011;27746;52.228;20.890;2022-12-24T09:09:15;29.73;;;14.93;;
42084;SDS011;27746;52.228;20.890;2022-12-24T09:11:41;25.88;;;13.45;;
42084;SDS011;27746;52.228;20.890;2022-12-24T09:14:09;28.17;;;13.27;;
42084;SDS011;27746;52.228;20.890;2022-12-24T09:16:37;27.60;;;14.90;;
42084;SDS011;27746;52.228;20.890;2022-12-24T09:19:04;28.35;;;14.23;;
42084;SDS011;27746;52.228;20.890;2022-12-24T09:21:31;26.60;;;13.35;;
42084;SDS011;27746;52.228;20.890;2022-12-24T09:23:58;27.58;;;15.00;;
42084;SDS011;27746;52.228;20.890;2022-12-24T09:26:26;34.42;;;16.13;;
42084;SDS011;27746;52.228;20.890;2022-12-24T09:28:56;34.70;;;16.83;;
42084;SDS011;27746;52.228;20.890;2022-12-24T09:31:24;33.67;;;16.92;;
42084;SDS011;27746;52.228;20.890;2022-12-24T09:33:54;30.65;;;16.35;;
42084;SDS011;27746;52.228;20.890;2022-12-24T09:36:21;34.67;;;16.88;;
42084;SDS011;27746;52.228;20.890;2022-12-24T09:38:48;34.15;;;16.90;;
42084;SDS011;27746;52.228;20.890;2022-12-24T09:41:28;29.77;;;15.65;;
42084;SDS011;27746;52.228;20.890;2022-12-24T09:44:02;34.15;;;15.15;;
42084;SDS011;27746;52.228;20.890;2022-12-24T09:46:45;30.02;;;14.57;;
42084;SDS011;27746;52.228;20.890;2022-12-24T09:49:17;28.67;;;15.02;;
42084;SDS011;27746;52.228;20.890;2022-12-24T09:51:48;36.72;;;17.45;;
42084;SDS011;27746;52.228;20.890;2022-12-24T09:54:18;27.90;;;13.35;;
42084;SDS011;27746;52.228;20.890;2022-12-24T09:56:50;34.90;;;16.83;;
42084;SDS011;27746;52.228;20.890;2022-12-24T09:59:20;31.48;;;15.90;;
42084;SDS011;27746;52.228;20.890;2022-12-24T10:01:50;32.55;;;14.75;;
42084;SDS011;27746;52.228;20.890;2022-12-24T10:04:21;31.23;;;15.45;;
42084;SDS011;27746;52.228;20.890;2022-12-24T10:06:57;31.55;;;15.35;;
42084;SDS011;27746;52.228;20.890;2022-12-24T10:09:33;28.63;;;14.05;;
42084;SDS011;27746;52.228;20.890;2022-12-24T10:12:06;28.95;;;15.20;;
42084;SDS011;27746;52.228;20.890;2022-12-24T10:14:44;27.35;;;13.68;;
42084;SDS011;27746;52.228;20.890;2022-12-24T10:17:26;25.33;;;13.57;;
42084;SDS011;27746;52.228;20.890;2022-12-24T10:20:10;28.77;;;14.57;;
42084;SDS011;27746;52.228;20.890;2022-12-24T10:22:51;25.05;;;13.35;;
42084;SDS011;27746;52.228;20.890;2022-12-24T10:25:24;28.67;;;14.68;;
42084;SDS011;27746;52.228;20.890;2022-12-24T10:27:57;32.03;;;13.98;;
42084;SDS011;27746;52.228;20.890;2022-12-24T10:30:27;27.13;;;13.93;;
42084;SDS011;27746;52.228;20.890;2022-12-24T10:32:54;25.63;;;12.82;;
42084;SDS011;27746;52.228;20.890;2022-12-24T10:35:24;29.05;;;14.23;;
42084;SDS011;27746;52.228;20.890;2022-12-24T10:37:54;34.28;;;16.48;;
42084;SDS011;27746;52.228;20.890;2022-12-24T10:40:25;25.70;;;13.30;;
42084;SDS011;27746;52.228;20.890;2022-12-24T10:42:56;27.63;;;14.80;;
42084;SDS011;27746;52.228;20.890;2022-12-24T10:45:24;28.23;;;13.77;;
42084;SDS011;27746;52.228;20.890;2022-12-24T10:47:57;31.80;;;15.43;;
42084;SDS011;27746;52.228;20.890;2022-12-24T10:50:31;22.60;;;13.57;;
42084;SDS011;27746;52.228;20.890;2022-12-24T10:53:03;28.42;;;14.23;;
42084;SDS011;27746;52.228;20.890;2022-12-24T10:55:48;29.30;;;15.77;;
42084;SDS011;27746;52.228;20.890;2022-12-24T10:58:15;35.60;;;17.23;;
42084;SDS011;27746;52.228;20.890;2022-12-24T11:00:48;29.65;;;16.42;;
42084;SDS011;27746;52.228;20.890;2022-12-24T11:03:20;36.40;;;17.60;;
42084;SDS011;27746;52.228;20.890;2022-12-24T11:05:59;39.90;;;19.15;;
42084;SDS011;27746;52.228;20.890;2022-12-24T11:08:29;31.17;;;16.98;;
42084;SDS011;27746;52.228;20.890;2022-12-24T11:10:59;40.92;;;18.75;;
42084;SDS011;27746;52.228;20.890;2022-12-24T11:13:28;30.13;;;16.15;;
42084;SDS011;27746;52.228;20.890;2022-12-24T11:16:01;30.90;;;16.05;;
42084;SDS011;27746;52.228;20.890;2022-12-24T11:18:30;32.90;;;16.75;;
42084;SDS011;27746;52.228;20.890;2022-12-24T11:21:00;33.40;;;16.25;;
42084;SDS011;27746;52.228;20.890;2022-12-24T11:23:29;36.03;;;17.90;;
42084;SDS011;27746;52.228;20.890;2022-12-24T11:25:56;35.28;;;17.20;;
42084;SDS011;27746;52.228;20.890;2022-12-24T11:28:25;33.72;;;17.27;;
42084;SDS011;27746;52.228;20.890;2022-12-24T11:30:54;35.95;;;19.13;;
42084;SDS011;27746;52.228;20.890;2022-12-24T11:33:23;35.53;;;17.90;;
42084;SDS011;27746;52.228;20.890;2022-12-24T11:35:52;37.97;;;18.38;;
42084;SDS011;27746;52.228;20.890;2022-12-24T11:38:23;32.17;;;17.42;;
42084;SDS011;27746;52.228;20.890;2022-12-24T11:43:40;35.53;;;17.52;;
42084;SDS011;27746;52.228;20.890;2022-12-24T11:46:19;37.47;;;17.77;;
42084;SDS011;27746;52.228;20.890;2022-12-24T11:49:13;37.35;;;18.35;;
42084;SDS011;27746;52.228;20.890;2022-12-24T11:51:57;33.78;;;17.10;;
42084;SDS011;27746;52.228;20.890;2022-12-24T11:54:42;35.42;;;17.70;;
42084;SDS011;27746;52.228;20.890;2022-12-24T11:57:16;36.40;;;17.60;;
42084;SDS011;27746;52.228;20.890;2022-12-24T11:59:49;40.10;;;18.83;;
42084;SDS011;27746;52.228;20.890;2022-12-24T12:02:17;36.45;;;18.67;;
42084;SDS011;27746;52.228;20.890;2022-12-24T12:04:48;38.83;;;18.35;;
42084;SDS011;27746;52.228;20.890;2022-12-24T12:07:19;34.42;;;17.80;;
42084;SDS011;27746;52.228;20.890;2022-12-24T12:09:52;37.15;;;20.05;;
42084;SDS011;27746;52.228;20.890;2022-12-24T12:12:25;39.75;;;20.67;;
42084;SDS011;27746;52.228;20.890;2022-12-24T12:14:56;38.25;;;18.73;;
42084;SDS011;27746;52.228;20.890;2022-12-24T12:17:29;40.40;;;20.10;;
42084;SDS011;27746;52.228;20.890;2022-12-24T12:20:02;41.85;;;20.90;;
42084;SDS011;27746;52.228;20.890;2022-12-24T12:22:37;36.00;;;18.17;;
42084;SDS011;27746;52.228;20.890;2022-12-24T12:25:16;39.50;;;19.50;;
42084;SDS011;27746;52.228;20.890;2022-12-24T12:27:49;38.67;;;18.63;;
42084;SDS011;27746;52.228;20.890;2022-12-24T12:30:20;42.00;;;19.73;;
42084;SDS011;27746;52.228;20.890;2022-12-24T12:32:50;41.80;;;21.33;;
42084;SDS011;27746;52.228;20.890;2022-12-24T12:35:22;39.55;;;20.48;;
42084;SDS011;27746;52.228;20.890;2022-12-24T12:37:57;40.65;;;19.60;;
42084;SDS011;27746;52.228;20.890;2022-12-24T12:40:31;36.42;;;19.38;;
42084;SDS011;27746;52.228;20.890;2022-12-24T12:43:15;37.95;;;18.92;;
42084;SDS011;27746;52.228;20.890;2022-12-24T12:45:55;39.72;;;18.42;;
42084;SDS011;27746;52.228;20.890;2022-12-24T12:48:33;40.78;;;19.25;;
42084;SDS011;27746;52.228;20.890;2022-12-24T12:51:18;39.92;;;20.08;;
42084;SDS011;27746;52.228;20.890;2022-12-24T12:53:55;38.63;;;18.27;;
42084;SDS011;27746;52.228;20.890;2022-12-24T12:56:35;39.72;;;17.98;;
42084;SDS011;27746;52.228;20.890;2022-12-24T12:59:06;39.33;;;18.77;;
42084;SDS011;27746;52.228;20.890;2022-12-24T13:01:41;41.25;;;20.17;;
42084;SDS011;27746;52.228;20.890;2022-12-24T13:07:18;41.67;;;18.33;;
42084;SDS011;27746;52.228;20.890;2022-12-24T13:10:20;38.63;;;19.17;;
42084;SDS011;27746;52.228;20.890;2022-12-24T13:13:18;38.97;;;17.42;;
42084;SDS011;27746;52.228;20.890;2022-12-24T13:16:16;38.38;;;18.77;;
42084;SDS011;27746;52.228;20.890;2022-12-24T13:19:02;39.40;;;19.65;;
42084;SDS011;27746;52.228;20.890;2022-12-24T13:21:40;38.05;;;18.42;;
42084;SDS011;27746;52.228;20.890;2022-12-24T13:24:13;38.22;;;20.35;;
42084;SDS011;27746;52.228;20.890;2022-12-24T13:26:42;38.60;;;19.20;;
42084;SDS011;27746;52.228;20.890;2022-12-24T13:29:30;42.38;;;19.83;;
42084;SDS011;27746;52.228;20.890;2022-12-24T13:37:52;43.33;;;20.45;;
42084;SDS011;27746;52.228;20.890;2022-12-24T13:40:22;44.80;;;22.77;;
42084;SDS011;27746;52.228;20.890;2022-12-24T13:42:50;46.50;;;23.02;;
42084;SDS011;27746;52.228;20.890;2022-12-24T13:45:42;43.60;;;20.27;;
42084;SDS011;27746;52.228;20.890;2022-12-24T13:48:24;45.95;;;20.27;;
42084;SDS011;27746;52.228;20.890;2022-12-24T13:50:55;35.45;;;19.27;;
42084;SDS011;27746;52.228;20.890;2022-12-24T13:53:26;40.85;;;20.55;;
42084;SDS011;27746;52.228;20.890;2022-12-24T13:56:05;41.58;;;20.45;;
42084;SDS011;27746;52.228;20.890;2022-12-24T13:58:35;41.92;;;19.08;;
42084;SDS011;27746;52.228;20.890;2022-12-24T14:01:07;38.28;;;18.90;;
42084;SDS011;27746;52.228;20.890;2022-12-24T14:03:36;41.67;;;21.63;;
42084;SDS011;27746;52.228;20.890;2022-12-24T14:06:09;44.85;;;21.58;;
42084;SDS011;27746;52.228;20.890;2022-12-24T14:08:40;39.97;;;20.40;;
42084;SDS011;27746;52.228;20.890;2022-12-24T14:11:09;32.00;;;18.20;;
42084;SDS011;27746;52.228;20.890;2022-12-24T14:16:52;44.78;;;19.88;;
42084;SDS011;27746;52.228;20.890;2022-12-24T14:19:22;41.42;;;19.77;;
42084;SDS011;27746;52.228;20.890;2022-12-24T14:22:00;41.22;;;18.92;;
42084;SDS011;27746;52.228;20.890;2022-12-24T14:24:30;40.75;;;19.63;;
42084;SDS011;27746;52.228;20.890;2022-12-24T14:27:05;39.42;;;19.73;;
42084;SDS011;27746;52.228;20.890;2022-12-24T14:29:41;42.78;;;21.30;;
42084;SDS011;27746;52.228;20.890;2022-12-24T14:32:15;43.50;;;21.20;;
42084;SDS011;27746;52.228;20.890;2022-12-24T14:34:42;48.70;;;22.58;;
42084;SDS011;27746;52.228;20.890;2022-12-24T14:37:09;54.97;;;25.45;;
42084;SDS011;27746;52.228;20.890;2022-12-24T14:39:40;51.97;;;22.80;;
42084;SDS011;27746;52.228;20.890;2022-12-24T14:42:20;55.67;;;24.92;;
42084;SDS011;27746;52.228;20.890;2022-12-24T14:45:00;56.97;;;26.13;;
42084;SDS011;27746;52.228;20.890;2022-12-24T14:47:36;54.78;;;23.20;;
42084;SDS011;27746;52.228;20.890;2022-12-24T14:50:17;52.78;;;23.25;;